Detall de PIREP

Printer-friendly versionPDF version

[2012/10/31 09:33:00]
Flight IATA:CT0001
Pilot Number:042
Company ICAO:CAT
Aircraft Type:B738/F
PAX:90
Departing Airport: LEGE
Destination Airport: LEMH
Alternate Airport:LEPA
Online: VATSIM
Route:BGR A67 SARGO
Flight Level:F230
No Slew and time accel
No pause
Crash detect
Detect pilot in Cockpit between each 30 and 45 minutes
09:33 Zero fuel Weight: 115600 Lbs, Fuel Weight: 46058 Lbs
09:33 VATSIM:LEGE 310900Z 01012KT 330V050 3000 RA SCT005 BKN020 11/11 Q0993
09:33 VATSIM:LEMH 310900Z 21009KT 170V260 9999 FEW010 FEW020TCU SCT032 17/16 Q0989
09:33 VOICE CATALONIAN
09:42 Parking Brakes off
09:49 Take-off
09:49 Take off Weight: 160955 Lbs
09:49 Wind: 015º @ 014 Knots Heading: 015º
09:49 POS N41º 54´ 53´´ E002º 45´ 57´´
09:49 Gear Up: 168 Knots
09:49 Flaps:5 at 168 Knots
09:50 Flaps:4 at 167 Knots
09:50 Flaps:3 at 180 Knots
09:51 Flaps:2 at 187 Knots
09:51 Flaps:1 at 200 Knots
09:51 Flaps:0 at 207 Knots
10:00 TOC
10:00 Fuel Weight: 42640 Lb
10:04 Wind:175º@033 Knots Heading: 154º Ground Speed: 351 Knots Altitude 22414 ft
10:04 TOD
10:04 Fuel Weight: 42342 Lb
10:17 Flaps:1 at 230 Knots
10:18 Flaps:2 at 227 Knots
10:19 Wind:242º@009 Knots Heading: 086º Ground Speed: 239 Knots Altitude 3727 ft
10:21 Flaps:3 at 172 Knots
10:21 Flaps:4 at 182 Knots
10:21 Gear Down: 183 Knots
10:21 Flaps:5 at 185 Knots
10:21 Flaps:6 at 169 Knots
10:22 Flaps:7 at 145 Knots
10:22 Flaps:8 at 145 Knots
10:24 TouchDown:Rate -347 ft/min Speed: 147 Knots
10:24 VATSIM:LEMH 311000Z 23018G28KT 190V260 9999 FEW015 SCT022 18/13 Q0988
10:24 Land
10:24 Wind:217º@010 Knots
10:24 Heading: 188º
10:24 Flight Duration: 00:35
10:24 Landing Weight: 156963 Lbs
10:24 POS N39º 51´ 34´´ E004º 13´ 04´´
10:28 Parking brakes on
10:28 Block to Block Duration: 00:46
10:28 Final Fuel: 40939 Lbls
10:28 Spent Fuel: 5119 Lbls
10:28 Flight Length: 164 NM
10:28 TOD Land Length: 84 NM

Exportar CSV

Powered by Drupal - Modified by Danger4k